Time;durP1;ratioP1;P1;durP2;ratioP2;P2;SDS_P1;SDS_P2;PMS_P1;PMS_P2;Temp;Humidity;BMP_temperature;BMP_pressure;BME280_temperature;BME280_humidity;BME280_pressure;Samples;Min_cycle;Max_cycle;Signal;HPM_P1;HPM_P2
2023/10/15 00:08:39;;;;;;;;;;;9.90;99.90;;;;;;21059273;28;19966;-77
2023/10/15 00:18:40;;;;;;;;;;;9.90;99.90;;;;;;21056412;28;19983;-77
2023/10/15 00:28:44;;;;;;;;;;;9.90;99.90;;;;;;21053163;28;19924;-77
2023/10/15 00:38:45;;;;;;;;;;;9.80;99.90;;;;;;21061473;28;19935;-78
2023/10/15 00:48:46;;;;;;;;;;;9.90;99.90;;;;;;21062792;28;19912;-78
2023/10/15 00:59:07;;;;;;;;;;;9.80;99.90;;;;;;21063019;28;20393;-78
2023/10/15 01:09:09;;;;;;;;;;;9.80;99.90;;;;;;21019951;28;19912;-78
2023/10/15 01:29:18;;;;;;;;;;;10.00;99.90;;;;;;21048806;28;19916;-78
2023/10/15 01:39:22;;;;;;;;;;;10.00;99.90;;;;;;21060839;28;20419;-78
2023/10/15 01:49:32;;;;;;;;;;;10.10;99.90;;;;;;21060849;28;19913;-78
2023/10/15 01:59:44;;;;;;;;;;;10.00;99.90;;;;;;21062903;28;19920;-78
2023/10/15 02:09:50;;;;;;;;;;;10.00;99.90;;;;;;21057631;28;19934;-77
2023/10/15 02:19:55;;;;;;;;;;;10.00;99.90;;;;;;21058678;28;19916;-77
2023/10/15 02:29:56;;;;;;;;;;;9.80;99.90;;;;;;21060386;28;19923;-78
2023/10/15 02:39:57;;;;;;;;;;;10.00;99.90;;;;;;21060944;28;19916;-78
2023/10/15 02:50:01;;;;;;;;;;;9.90;99.90;;;;;;21057970;28;19959;-78
2023/10/15 03:00:12;;;;;;;;;;;9.90;99.90;;;;;;21047531;28;20528;-78
2023/10/15 03:10:13;;;;;;;;;;;9.90;99.90;;;;;;21044285;28;19912;-78
2023/10/15 03:30:23;;;;;;;;;;;10.00;99.90;;;;;;21060438;28;19916;-78
2023/10/15 03:40:46;;;;;;;;;;;10.00;99.90;;;;;;21073119;28;19920;-78
2023/10/15 03:50:54;;;;;;;;;;;10.00;99.90;;;;;;21073292;28;19994;-78
2023/10/15 04:11:13;;;;;;;;;;;10.00;99.90;;;;;;21074001;28;19926;-78
2023/10/15 04:21:16;;;;;;;;;;;9.90;99.90;;;;;;21071703;28;19955;-78
2023/10/15 04:31:22;;;;;;;;;;;9.90;99.90;;;;;;21075233;28;19931;-77
2023/10/15 04:41:22;;;;;;;;;;;9.80;99.90;;;;;;21060767;28;19920;-78
2023/10/15 04:51:42;;;;;;;;;;;9.80;99.90;;;;;;21057664;28;20027;-78
2023/10/15 05:01:42;;;;;;;;;;;9.80;99.90;;;;;;21070911;28;20299;-78
2023/10/15 05:11:44;;;;;;;;;;;9.80;99.90;;;;;;21066957;28;19964;-78
2023/10/15 05:21:46;;;;;;;;;;;9.70;99.90;;;;;;21063160;28;19927;-78
2023/10/15 05:31:47;;;;;;;;;;;9.70;99.90;;;;;;21066447;28;19923;-78
2023/10/15 05:41:47;;;;;;;;;;;9.70;99.90;;;;;;21072005;28;20006;-78
2023/10/15 05:51:48;;;;;;;;;;;9.70;99.90;;;;;;21052790;28;19919;-78
2023/10/15 06:01:50;;;;;;;;;;;9.70;99.90;;;;;;21046215;28;19916;-78
2023/10/15 06:11:50;;;;;;;;;;;9.60;99.90;;;;;;21060899;28;19919;-78
2023/10/15 06:21:51;;;;;;;;;;;9.80;99.90;;;;;;21061463;28;20373;-78
2023/10/15 06:31:52;;;;;;;;;;;10.10;99.90;;;;;;21058312;28;19959;-78
2023/10/15 06:41:53;;;;;;;;;;;10.30;99.90;;;;;;21062261;28;19923;-79
2023/10/15 06:51:54;;;;;;;;;;;10.30;99.90;;;;;;21051646;28;19919;-79
2023/10/15 07:01:54;;;;;;;;;;;10.20;99.90;;;;;;21001635;28;20291;-78
2023/10/15 07:11:55;;;;;;;;;;;10.50;99.90;;;;;;20997986;28;20315;-78
2023/10/15 07:21:56;;;;;;;;;;;10.70;99.90;;;;;;21080180;28;19969;-78
2023/10/15 07:31:57;;;;;;;;;;;11.30;99.90;;;;;;21073504;28;19922;-77
2023/10/15 07:41:58;;;;;;;;;;;11.50;99.90;;;;;;21081550;28;19916;-78
2023/10/15 07:51:59;;;;;;;;;;;12.80;99.90;;;;;;21052314;28;19948;-78
2023/10/15 08:01:59;;;;;;;;;;;12.00;99.90;;;;;;21081574;28;19923;-78
2023/10/15 08:12:00;;;;;;;;;;;11.70;99.90;;;;;;21052634;28;19913;-78
2023/10/15 08:22:01;;;;;;;;;;;11.60;99.90;;;;;;21034240;28;19951;-78
2023/10/15 08:32:01;;;;;;;;;;;11.70;99.90;;;;;;21026019;28;19927;-78
2023/10/15 08:42:03;;;;;;;;;;;12.00;99.90;;;;;;21027086;28;20385;-78
2023/10/15 08:52:06;;;;;;;;;;;12.40;99.90;;;;;;21028803;28;19912;-77
2023/10/15 09:02:08;;;;;;;;;;;12.40;99.90;;;;;;20995037;28;20367;-79
2023/10/15 09:12:12;;;;;;;;;;;12.70;99.90;;;;;;21036561;28;19912;-77
2023/10/15 09:22:15;;;;;;;;;;;12.80;99.90;;;;;;21083888;28;19916;-78
2023/10/15 09:32:16;;;;;;;;;;;12.20;99.90;;;;;;21043936;28;19923;-79
2023/10/15 09:42:18;;;;;;;;;;;13.50;99.90;;;;;;20999858;28;19916;-78
2023/10/15 09:52:19;;;;;;;;;;;14.10;99.90;;;;;;21084633;28;20279;-79
2023/10/15 10:02:27;;;;;;;;;;;14.50;99.90;;;;;;21077639;28;19923;-77
2023/10/15 10:12:47;;;;;;;;;;;13.00;99.90;;;;;;21057168;28;19913;-78
2023/10/15 10:22:58;;;;;;;;;;;12.60;99.90;;;;;;21082216;28;19916;-78
2023/10/15 10:33:01;;;;;;;;;;;13.90;99.90;;;;;;21072276;28;19923;-78
2023/10/15 10:43:14;;;;;;;;;;;13.40;99.90;;;;;;21083745;28;20007;-78
2023/10/15 10:53:15;;;;;;;;;;;14.20;99.90;;;;;;21095487;28;19916;-79
2023/10/15 11:03:15;;;;;;;;;;;14.30;99.90;;;;;;21081231;28;20455;-78
2023/10/15 11:13:16;;;;;;;;;;;14.10;99.90;;;;;;21099601;28;19934;-78
2023/10/15 11:23:17;;;;;;;;;;;13.50;99.90;;;;;;21096842;28;19916;-78
2023/10/15 11:33:18;;;;;;;;;;;13.40;99.90;;;;;;21090751;28;19923;-78
2023/10/15 11:43:18;;;;;;;;;;;12.50;99.90;;;;;;21069039;28;20410;-78
2023/10/15 11:53:23;;;;;;;;;;;12.00;99.90;;;;;;21077978;28;19955;-78
2023/10/15 12:03:25;;;;;;;;;;;12.30;99.90;;;;;;21082891;28;19923;-78
2023/10/15 12:13:26;;;;;;;;;;;12.40;99.90;;;;;;21049598;28;19916;-78
2023/10/15 12:23:27;;;;;;;;;;;13.80;99.90;;;;;;21093862;28;19958;-79
2023/10/15 12:33:29;;;;;;;;;;;15.50;99.90;;;;;;21089906;28;20346;-79
2023/10/15 12:43:29;;;;;;;;;;;15.20;99.90;;;;;;21071040;28;19924;-78
2023/10/15 12:53:31;;;;;;;;;;;13.30;99.90;;;;;;21093147;28;19916;-78
2023/10/15 13:03:33;;;;;;;;;;;14.40;99.90;;;;;;21086354;28;19923;-79
2023/10/15 13:13:34;;;;;;;;;;;13.30;99.90;;;;;;21036500;28;19970;-78
2023/10/15 13:23:35;;;;;;;;;;;12.80;99.90;;;;;;21053196;28;19923;-78
2023/10/15 13:33:43;;;;;;;;;;;15.30;99.90;;;;;;21306539;27;19912;-78
2023/10/15 13:43:44;;;;;;;;;;;14.20;99.90;;;;;;21320850;27;19949;-79
2023/10/15 13:53:45;;;;;;;;;;;14.10;99.90;;;;;;21326264;27;19911;-78
2023/10/15 14:03:47;;;;;;;;;;;15.40;99.90;;;;;;21295438;27;19918;-79
2023/10/15 14:13:48;;;;;;;;;;;13.90;99.90;;;;;;21315297;27;19912;-79
2023/10/15 14:23:49;;;;;;;;;;;13.60;99.90;;;;;;21311155;27;19918;-79
2023/10/15 14:33:49;;;;;;;;;;;13.90;99.90;;;;;;21303996;27;19922;-79
2023/10/15 14:43:50;;;;;;;;;;;15.40;99.90;;;;;;21255337;27;19915;-77
2023/10/15 14:53:50;;;;;;;;;;;15.60;99.90;;;;;;21265575;27;19911;-79
2023/10/15 15:03:51;;;;;;;;;;;15.00;99.90;;;;;;21263441;27;19970;-79
2023/10/15 15:13:52;;;;;;;;;;;15.10;99.90;;;;;;21232588;27;19991;-79
2023/10/15 15:23:53;;;;;;;;;;;14.70;99.90;;;;;;21251842;27;20002;-79
2023/10/15 15:33:54;;;;;;;;;;;14.30;99.90;;;;;;21235690;27;19915;-79
2023/10/15 15:43:55;;;;;;;;;;;14.20;99.90;;;;;;21231309;27;19915;-79
2023/10/15 15:53:55;;;;;;;;;;;13.40;99.90;;;;;;21246151;27;19911;-79
2023/10/15 16:03:56;;;;;;;;;;;12.60;99.90;;;;;;21242257;27;19912;-78
2023/10/15 16:13:57;;;;;;;;;;;12.50;99.90;;;;;;21216453;27;19915;-78
2023/10/15 16:23:57;;;;;;;;;;;11.80;99.90;;;;;;21224472;27;20381;-78
2023/10/15 16:33:58;;;;;;;;;;;11.40;99.90;;;;;;21252407;27;19911;-78
2023/10/15 16:43:59;;;;;;;;;;;10.50;99.90;;;;;;21234691;27;19916;-77
2023/10/15 16:54:00;;;;;;;;;;;9.70;99.90;;;;;;21187044;27;19916;-78
2023/10/15 17:04:01;;;;;;;;;;;9.10;99.90;;;;;;21191563;27;20370;-77
2023/10/15 17:14:02;;;;;;;;;;;8.30;99.90;;;;;;21192197;27;19962;-77
2023/10/15 17:24:03;;;;;;;;;;;7.70;99.90;;;;;;21210695;27;19923;-77
2023/10/15 17:34:03;;;;;;;;;;;7.40;99.90;;;;;;21230459;27;20648;-78
2023/10/15 17:44:04;;;;;;;;;;;7.80;99.90;;;;;;21229257;28;19915;-77
2023/10/15 17:54:07;;;;;;;;;;;7.50;99.90;;;;;;21196681;27;19951;-78
2023/10/15 18:04:08;;;;;;;;;;;7.20;99.90;;;;;;21218019;27;20282;-77
2023/10/15 18:14:08;;;;;;;;;;;6.40;99.90;;;;;;21218206;27;19934;-77
2023/10/15 18:24:09;;;;;;;;;;;6.70;99.90;;;;;;21219675;27;19923;-77
2023/10/15 18:34:12;;;;;;;;;;;7.10;99.90;;;;;;21166810;27;19967;-77
2023/10/15 18:44:12;;;;;;;;;;;7.00;99.90;;;;;;21159693;27;19970;-77
2023/10/15 18:54:13;;;;;;;;;;;6.60;99.90;;;;;;21168420;27;19919;-77
2023/10/15 19:04:14;;;;;;;;;;;6.80;99.90;;;;;;21151202;27;19938;-77
2023/10/15 19:14:17;;;;;;;;;;;6.40;99.90;;;;;;21146634;27;19915;-77
2023/10/15 19:24:18;;;;;;;;;;;6.90;99.90;;;;;;21148677;27;19942;-76
2023/10/15 19:34:19;;;;;;;;;;;7.00;99.90;;;;;;21164622;27;19911;-76
2023/10/15 19:44:20;;;;;;;;;;;6.90;99.90;;;;;;21159669;27;19915;-77
2023/10/15 19:54:21;;;;;;;;;;;6.90;99.90;;;;;;21158657;27;19916;-76
2023/10/15 20:04:21;;;;;;;;;;;6.60;99.90;;;;;;21153852;27;19923;-77
2023/10/15 20:14:22;;;;;;;;;;;6.70;99.90;;;;;;21155633;27;19937;-77
2023/10/15 20:24:23;;;;;;;;;;;6.50;99.90;;;;;;21168781;27;19922;-77
2023/10/15 20:34:23;;;;;;;;;;;6.50;99.90;;;;;;21156081;27;19968;-76
2023/10/15 20:44:24;;;;;;;;;;;6.30;99.90;;;;;;21138436;27;19912;-77
2023/10/15 20:54:25;;;;;;;;;;;6.40;99.90;;;;;;21133215;27;19919;-77
2023/10/15 21:04:27;;;;;;;;;;;6.10;99.90;;;;;;21154946;27;19916;-76
2023/10/15 21:14:30;;;;;;;;;;;6.00;99.90;;;;;;21160338;27;19962;-77
2023/10/15 21:24:31;;;;;;;;;;;6.10;99.90;;;;;;21181336;27;19955;-77
2023/10/15 21:34:32;;;;;;;;;;;6.00;99.90;;;;;;21178570;27;19974;-77
2023/10/15 21:44:32;;;;;;;;;;;6.00;99.90;;;;;;21181643;27;19926;-77
2023/10/15 21:54:33;;;;;;;;;;;6.00;99.90;;;;;;21195694;27;19971;-77
2023/10/15 22:04:34;;;;;;;;;;;5.90;99.90;;;;;;21194018;27;19918;-77
2023/10/15 22:14:35;;;;;;;;;;;5.60;99.90;;;;;;21196667;27;19915;-77
2023/10/15 22:24:39;;;;;;;;;;;5.40;99.90;;;;;;21196763;27;19992;-77
2023/10/15 22:34:40;;;;;;;;;;;5.20;99.90;;;;;;21155281;27;19919;-77
2023/10/15 22:44:44;;;;;;;;;;;4.90;99.90;;;;;;21171642;27;19995;-77
2023/10/15 22:54:44;;;;;;;;;;;4.90;99.90;;;;;;21172938;27;19916;-77
2023/10/15 23:04:45;;;;;;;;;;;5.00;99.90;;;;;;21176882;27;20382;-77
2023/10/15 23:14:46;;;;;;;;;;;5.10;99.90;;;;;;21183728;27;19923;-77
2023/10/15 23:24:47;;;;;;;;;;;5.30;99.90;;;;;;21178799;27;20600;-77
2023/10/15 23:34:47;;;;;;;;;;;5.20;99.90;;;;;;21175894;27;19916;-77
2023/10/15 23:44:48;;;;;;;;;;;5.30;99.90;;;;;;21178750;27;20398;-77
2023/10/15 23:54:53;;;;;;;;;;;5.50;99.90;;;;;;21177249;27;19916;-77
